sensor_id;sensor_type;location;lat;lon;timestamp;pressure;altitude;pressure_sealevel;temperature;humidity
73101;BME280;61288;53.446;-2.266;2024-03-08T00:02:00;102270.16;;;3.94;100.00
73101;BME280;61288;53.446;-2.266;2024-03-08T00:04:25;102271.03;;;3.94;100.00
73101;BME280;61288;53.446;-2.266;2024-03-08T00:06:51;102262.44;;;3.94;100.00
73101;BME280;61288;53.446;-2.266;2024-03-08T00:09:16;102264.22;;;3.96;100.00
73101;BME280;61288;53.446;-2.266;2024-03-08T00:11:42;102263.38;;;3.97;100.00
73101;BME280;61288;53.446;-2.266;2024-03-08T00:14:07;102270.22;;;3.98;100.00
73101;BME280;61288;53.446;-2.266;2024-03-08T00:16:34;102265.06;;;3.97;100.00
73101;BME280;61288;53.446;-2.266;2024-03-08T00:19:01;102264.25;;;3.98;100.00
73101;BME280;61288;53.446;-2.266;2024-03-08T00:21:27;102263.41;;;3.99;100.00
73101;BME280;61288;53.446;-2.266;2024-03-08T00:23:53;102252.22;;;3.97;100.00
73101;BME280;61288;53.446;-2.266;2024-03-08T00:26:21;102257.31;;;3.94;100.00
73101;BME280;61288;53.446;-2.266;2024-03-08T00:28:48;102250.47;;;3.91;100.00
73101;BME280;61288;53.446;-2.266;2024-03-08T00:31:14;102245.31;;;3.89;100.00
73101;BME280;61288;53.446;-2.266;2024-03-08T00:33:42;102248.75;;;3.90;100.00
73101;BME280;61288;53.446;-2.266;2024-03-08T00:36:08;102241.88;;;3.87;100.00
73101;BME280;61288;53.446;-2.266;2024-03-08T00:38:34;102235.84;;;3.85;100.00
73101;BME280;61288;53.446;-2.266;2024-03-08T00:41:00;102236.69;;;3.83;100.00
73101;BME280;61288;53.446;-2.266;2024-03-08T00:43:27;102234.88;;;3.75;100.00
73101;BME280;61288;53.446;-2.266;2024-03-08T00:45:52;102222.03;;;3.71;100.00
73101;BME280;61288;53.446;-2.266;2024-03-08T00:48:18;102222.00;;;3.69;100.00
73101;BME280;61288;53.446;-2.266;2024-03-08T00:50:43;102225.38;;;3.67;100.00
73101;BME280;61288;53.446;-2.266;2024-03-08T00:53:11;102221.94;;;3.65;100.00
73101;BME280;61288;53.446;-2.266;2024-03-08T00:55:37;102215.09;;;3.65;100.00
73101;BME280;61288;53.446;-2.266;2024-03-08T00:58:04;102210.84;;;3.66;100.00
73101;BME280;61288;53.446;-2.266;2024-03-08T01:00:29;102205.75;;;3.69;100.00
73101;BME280;61288;53.446;-2.266;2024-03-08T01:02:55;102206.63;;;3.72;100.00
73101;BME280;61288;53.446;-2.266;2024-03-08T01:05:21;102195.56;;;3.76;100.00
73101;BME280;61288;53.446;-2.266;2024-03-08T01:07:49;102194.78;;;3.82;100.00
73101;BME280;61288;53.446;-2.266;2024-03-08T01:10:15;102188.81;;;3.83;100.00
73101;BME280;61288;53.446;-2.266;2024-03-08T01:12:40;102183.72;;;3.85;100.00
73101;BME280;61288;53.446;-2.266;2024-03-08T01:15:09;102172.66;;;3.90;100.00
73101;BME280;61288;53.446;-2.266;2024-03-08T01:17:36;102166.66;;;3.88;100.00
73101;BME280;61288;53.446;-2.266;2024-03-08T01:20:03;102154.63;;;3.81;100.00
73101;BME280;61288;53.446;-2.266;2024-03-08T01:22:28;102151.13;;;3.74;100.00
73101;BME280;61288;53.446;-2.266;2024-03-08T01:24:55;102144.25;;;3.73;100.00
73101;BME280;61288;53.446;-2.266;2024-03-08T01:27:21;102145.91;;;3.68;100.00
73101;BME280;61288;53.446;-2.266;2024-03-08T01:29:47;102128.81;;;3.67;100.00
73101;BME280;61288;53.446;-2.266;2024-03-08T01:32:14;102120.22;;;3.62;100.00
73101;BME280;61288;53.446;-2.266;2024-03-08T01:34:40;102115.09;;;3.64;100.00
73101;BME280;61288;53.446;-2.266;2024-03-08T01:37:06;102105.72;;;3.64;100.00
73101;BME280;61288;53.446;-2.266;2024-03-08T01:39:32;102102.25;;;3.60;100.00
73101;BME280;61288;53.446;-2.266;2024-03-08T01:41:58;102095.38;;;3.56;100.00
73101;BME280;61288;53.446;-2.266;2024-03-08T01:44:24;102095.38;;;3.55;100.00
73101;BME280;61288;53.446;-2.266;2024-03-08T01:46:51;102086.84;;;3.57;100.00
73101;BME280;61288;53.446;-2.266;2024-03-08T01:49:19;102077.41;;;3.53;100.00
73101;BME280;61288;53.446;-2.266;2024-03-08T01:51:48;102073.13;;;3.51;100.00
73101;BME280;61288;53.446;-2.266;2024-03-08T01:54:16;102067.94;;;3.46;100.00
73101;BME280;61288;53.446;-2.266;2024-03-08T01:56:44;102061.91;;;3.42;100.00
73101;BME280;61288;53.446;-2.266;2024-03-08T01:59:09;102060.16;;;3.37;100.00
73101;BME280;61288;53.446;-2.266;2024-03-08T02:01:35;102060.97;;;3.34;100.00
73101;BME280;61288;53.446;-2.266;2024-03-08T02:04:01;102059.25;;;3.31;100.00
73101;BME280;61288;53.446;-2.266;2024-03-08T02:06:26;102057.47;;;3.27;100.00
73101;BME280;61288;53.446;-2.266;2024-03-08T02:08:52;102043.00;;;3.31;100.00
73101;BME280;61288;53.446;-2.266;2024-03-08T02:11:18;102045.53;;;3.29;100.00
73101;BME280;61288;53.446;-2.266;2024-03-08T02:13:46;102043.78;;;3.25;100.00
73101;BME280;61288;53.446;-2.266;2024-03-08T02:16:11;102042.03;;;3.20;100.00
73101;BME280;61288;53.446;-2.266;2024-03-08T02:18:37;102028.34;;;3.17;100.00
73101;BME280;61288;53.446;-2.266;2024-03-08T02:21:06;102029.19;;;3.16;100.00
73101;BME280;61288;53.446;-2.266;2024-03-08T02:23:34;102018.91;;;3.15;100.00
73101;BME280;61288;53.446;-2.266;2024-03-08T02:26:00;102018.88;;;3.13;100.00
73101;BME280;61288;53.446;-2.266;2024-03-08T02:28:27;102010.31;;;3.10;100.00
73101;BME280;61288;53.446;-2.266;2024-03-08T02:30:53;102000.09;;;3.13;100.00
73101;BME280;61288;53.446;-2.266;2024-03-08T02:33:23;101992.41;;;3.13;100.00
73101;BME280;61288;53.446;-2.266;2024-03-08T02:35:49;101983.00;;;3.13;100.00
73101;BME280;61288;53.446;-2.266;2024-03-08T02:38:19;101985.63;;;3.16;100.00
73101;BME280;61288;53.446;-2.266;2024-03-08T02:40:46;101974.47;;;3.14;100.00
73101;BME280;61288;53.446;-2.266;2024-03-08T02:43:14;101960.78;;;3.08;100.00
73101;BME280;61288;53.446;-2.266;2024-03-08T02:45:41;101956.53;;;3.11;100.00
73101;BME280;61288;53.446;-2.266;2024-03-08T02:48:11;101960.78;;;3.08;100.00
73101;BME280;61288;53.446;-2.266;2024-03-08T02:50:37;101956.47;;;3.03;100.00
73101;BME280;61288;53.446;-2.266;2024-03-08T02:53:03;101953.88;;;3.02;100.00
73101;BME280;61288;53.446;-2.266;2024-03-08T02:55:29;101951.31;;;3.02;100.00
73101;BME280;61288;53.446;-2.266;2024-03-08T02:57:56;101954.75;;;3.04;100.00
73101;BME280;61288;53.446;-2.266;2024-03-08T03:00:22;101939.41;;;3.07;100.00
73101;BME280;61288;53.446;-2.266;2024-03-08T03:02:49;101948.84;;;3.10;100.00
73101;BME280;61288;53.446;-2.266;2024-03-08T03:05:23;101940.34;;;3.14;100.00
73101;BME280;61288;53.446;-2.266;2024-03-08T03:07:49;101942.97;;;3.18;100.00
73101;BME280;61288;53.446;-2.266;2024-03-08T03:10:19;101938.72;;;3.22;100.00
73101;BME280;61288;53.446;-2.266;2024-03-08T03:12:45;101921.72;;;3.29;100.00
73101;BME280;61288;53.446;-2.266;2024-03-08T03:15:12;101924.31;;;3.34;100.00
73101;BME280;61288;53.446;-2.266;2024-03-08T03:17:38;101917.56;;;3.42;100.00
73101;BME280;61288;53.446;-2.266;2024-03-08T03:20:08;101916.75;;;3.46;100.00
73101;BME280;61288;53.446;-2.266;2024-03-08T03:22:39;101909.97;;;3.53;100.00
73101;BME280;61288;53.446;-2.266;2024-03-08T03:25:07;101912.56;;;3.56;100.00
73101;BME280;61288;53.446;-2.266;2024-03-08T03:27:33;101908.31;;;3.58;100.00
73101;BME280;61288;53.446;-2.266;2024-03-08T03:29:58;101901.44;;;3.58;100.00
73101;BME280;61288;53.446;-2.266;2024-03-08T03:32:44;101911.75;;;3.63;100.00
73101;BME280;61288;53.446;-2.266;2024-03-08T03:35:16;101914.34;;;3.66;100.00
73101;BME280;61288;53.446;-2.266;2024-03-08T03:37:42;101905.81;;;3.66;100.00
73101;BME280;61288;53.446;-2.266;2024-03-08T03:40:11;101900.69;;;3.70;100.00
73101;BME280;61288;53.446;-2.266;2024-03-08T03:42:37;101900.72;;;3.72;100.00
73101;BME280;61288;53.446;-2.266;2024-03-08T03:45:08;101905.00;;;3.74;100.00
73101;BME280;61288;53.446;-2.266;2024-03-08T03:47:35;101906.72;;;3.74;100.00
73101;BME280;61288;53.446;-2.266;2024-03-08T03:50:01;101906.72;;;3.75;100.00
73101;BME280;61288;53.446;-2.266;2024-03-08T03:52:28;101912.72;;;3.78;100.00
73101;BME280;61288;53.446;-2.266;2024-03-08T03:54:57;101911.91;;;3.82;100.00
73101;BME280;61288;53.446;-2.266;2024-03-08T03:57:23;101908.50;;;3.83;100.00
73101;BME280;61288;53.446;-2.266;2024-03-08T03:59:48;101907.66;;;3.84;100.00
73101;BME280;61288;53.446;-2.266;2024-03-08T04:02:14;101911.94;;;3.85;100.00
73101;BME280;61288;53.446;-2.266;2024-03-08T04:04:40;101907.66;;;3.88;100.00
73101;BME280;61288;53.446;-2.266;2024-03-08T04:07:05;101915.38;;;3.90;100.00
73101;BME280;61288;53.446;-2.266;2024-03-08T04:09:31;101920.50;;;3.95;100.00
73101;BME280;61288;53.446;-2.266;2024-03-08T04:11:57;101908.56;;;3.95;100.00
73101;BME280;61288;53.446;-2.266;2024-03-08T04:14:23;101913.69;;;3.97;100.00
73101;BME280;61288;53.446;-2.266;2024-03-08T04:16:48;101921.44;;;4.00;100.00
73101;BME280;61288;53.446;-2.266;2024-03-08T04:19:14;101905.22;;;4.04;100.00
73101;BME280;61288;53.446;-2.266;2024-03-08T04:21:39;101912.06;;;4.08;100.00
73101;BME280;61288;53.446;-2.266;2024-03-08T04:24:05;101918.03;;;4.09;100.00
73101;BME280;61288;53.446;-2.266;2024-03-08T04:26:31;101913.78;;;4.11;100.00
73101;BME280;61288;53.446;-2.266;2024-03-08T04:28:57;101912.06;;;4.13;100.00
73101;BME280;61288;53.446;-2.266;2024-03-08T04:31:22;101906.09;;;4.14;100.00
73101;BME280;61288;53.446;-2.266;2024-03-08T04:33:48;101915.53;;;4.16;100.00
73101;BME280;61288;53.446;-2.266;2024-03-08T04:36:13;101911.28;;;4.18;100.00
73101;BME280;61288;53.446;-2.266;2024-03-08T04:38:39;101916.44;;;4.25;100.00
73101;BME280;61288;53.446;-2.266;2024-03-08T04:41:06;101916.44;;;4.26;100.00
73101;BME280;61288;53.446;-2.266;2024-03-08T04:43:33;101917.31;;;4.31;100.00
73101;BME280;61288;53.446;-2.266;2024-03-08T04:45:59;101916.47;;;4.32;100.00
73101;BME280;61288;53.446;-2.266;2024-03-08T04:48:24;101913.94;;;4.36;100.00
73101;BME280;61288;53.446;-2.266;2024-03-08T04:50:52;101916.50;;;4.37;100.00
73101;BME280;61288;53.446;-2.266;2024-03-08T04:53:19;101913.94;;;4.36;100.00
73101;BME280;61288;53.446;-2.266;2024-03-08T04:55:45;101919.06;;;4.34;100.00
73101;BME280;61288;53.446;-2.266;2024-03-08T04:58:12;101912.22;;;4.34;100.00
73101;BME280;61288;53.446;-2.266;2024-03-08T05:00:37;101913.06;;;4.33;100.00
73101;BME280;61288;53.446;-2.266;2024-03-08T05:03:03;101919.91;;;4.34;100.00
73101;BME280;61288;53.446;-2.266;2024-03-08T05:05:30;101916.50;;;4.36;100.00
73101;BME280;61288;53.446;-2.266;2024-03-08T05:07:56;101916.50;;;4.37;100.00
73101;BME280;61288;53.446;-2.266;2024-03-08T05:10:21;101916.50;;;4.39;100.00
73101;BME280;61288;53.446;-2.266;2024-03-08T05:12:47;101907.97;;;4.38;100.00
73101;BME280;61288;53.446;-2.266;2024-03-08T05:15:12;101911.38;;;4.39;100.00
73101;BME280;61288;53.446;-2.266;2024-03-08T05:17:38;101910.53;;;4.38;100.00
73101;BME280;61288;53.446;-2.266;2024-03-08T05:20:05;101897.69;;;4.38;100.00
73101;BME280;61288;53.446;-2.266;2024-03-08T05:22:33;101901.09;;;4.39;100.00
73101;BME280;61288;53.446;-2.266;2024-03-08T05:24:59;101902.81;;;4.40;100.00
73101;BME280;61288;53.446;-2.266;2024-03-08T05:27:24;101902.81;;;4.40;100.00
73101;BME280;61288;53.446;-2.266;2024-03-08T05:29:50;101894.25;;;4.41;100.00
73101;BME280;61288;53.446;-2.266;2024-03-08T05:32:15;101890.84;;;4.40;100.00
73101;BME280;61288;53.446;-2.266;2024-03-08T05:34:40;101893.41;;;4.42;100.00
73101;BME280;61288;53.446;-2.266;2024-03-08T05:37:06;101888.28;;;4.45;100.00
73101;BME280;61288;53.446;-2.266;2024-03-08T05:39:33;101891.72;;;4.45;100.00
73101;BME280;61288;53.446;-2.266;2024-03-08T05:41:59;101888.28;;;4.45;100.00
73101;BME280;61288;53.446;-2.266;2024-03-08T05:44:25;101886.56;;;4.44;100.00
73101;BME280;61288;53.446;-2.266;2024-03-08T05:46:54;101872.03;;;4.43;100.00
73101;BME280;61288;53.446;-2.266;2024-03-08T05:49:19;101878.03;;;4.43;100.00
73101;BME280;61288;53.446;-2.266;2024-03-08T05:51:45;101882.31;;;4.44;100.00
73101;BME280;61288;53.446;-2.266;2024-03-08T05:54:13;101878.03;;;4.45;100.00
73101;BME280;61288;53.446;-2.266;2024-03-08T05:56:39;101876.31;;;4.47;100.00
73101;BME280;61288;53.446;-2.266;2024-03-08T05:59:10;101867.75;;;4.45;100.00
73101;BME280;61288;53.446;-2.266;2024-03-08T06:01:36;101868.63;;;4.45;100.00
73101;BME280;61288;53.446;-2.266;2024-03-08T06:04:03;101872.03;;;4.46;100.00
73101;BME280;61288;53.446;-2.266;2024-03-08T06:06:29;101859.22;;;4.47;100.00
73101;BME280;61288;53.446;-2.266;2024-03-08T06:08:55;101862.66;;;4.50;100.00
73101;BME280;61288;53.446;-2.266;2024-03-08T06:11:24;101855.81;;;4.52;100.00
73101;BME280;61288;53.446;-2.266;2024-03-08T06:13:52;101857.53;;;4.53;100.00
73101;BME280;61288;53.446;-2.266;2024-03-08T06:16:28;101843.84;;;4.52;100.00
73101;BME280;61288;53.446;-2.266;2024-03-08T06:18:57;101846.41;;;4.51;100.00
73101;BME280;61288;53.446;-2.266;2024-03-08T06:21:23;101843.84;;;4.51;100.00
73101;BME280;61288;53.446;-2.266;2024-03-08T06:23:53;101844.69;;;4.53;100.00
73101;BME280;61288;53.446;-2.266;2024-03-08T06:26:21;101842.13;;;4.56;100.00
73101;BME280;61288;53.446;-2.266;2024-03-08T06:28:48;101836.16;;;4.58;100.00
73101;BME280;61288;53.446;-2.266;2024-03-08T06:31:14;101830.16;;;4.61;100.00
73101;BME280;61288;53.446;-2.266;2024-03-08T06:33:40;101831.91;;;4.63;100.00
73101;BME280;61288;53.446;-2.266;2024-03-08T06:36:05;101819.91;;;4.61;100.00
73101;BME280;61288;53.446;-2.266;2024-03-08T06:38:31;101821.63;;;4.60;100.00
73101;BME280;61288;53.446;-2.266;2024-03-08T06:40:56;101814.78;;;4.59;100.00
73101;BME280;61288;53.446;-2.266;2024-03-08T06:43:22;101813.06;;;4.61;100.00
73101;BME280;61288;53.446;-2.266;2024-03-08T06:45:47;101807.94;;;4.61;100.00
73101;BME280;61288;53.446;-2.266;2024-03-08T06:48:16;101806.22;;;4.62;100.00
73101;BME280;61288;53.446;-2.266;2024-03-08T06:50:44;101817.38;;;4.64;100.00
73101;BME280;61288;53.446;-2.266;2024-03-08T06:53:11;101812.22;;;4.66;100.00
73101;BME280;61288;53.446;-2.266;2024-03-08T06:55:37;101807.94;;;4.66;100.00
73101;BME280;61288;53.446;-2.266;2024-03-08T06:58:04;101807.09;;;4.67;100.00
73101;BME280;61288;53.446;-2.266;2024-03-08T07:00:29;101806.22;;;4.67;100.00
73101;BME280;61288;53.446;-2.266;2024-03-08T07:02:56;101796.84;;;4.70;100.00
73101;BME280;61288;53.446;-2.266;2024-03-08T07:05:26;101800.25;;;4.74;100.00
73101;BME280;61288;53.446;-2.266;2024-03-08T07:07:52;101793.41;;;4.74;100.00
73101;BME280;61288;53.446;-2.266;2024-03-08T07:10:18;101793.41;;;4.73;100.00
73101;BME280;61288;53.446;-2.266;2024-03-08T07:12:44;101795.97;;;4.73;100.00
73101;BME280;61288;53.446;-2.266;2024-03-08T07:15:12;101789.13;;;4.72;100.00
73101;BME280;61288;53.446;-2.266;2024-03-08T07:17:41;101798.53;;;4.74;100.00
73101;BME280;61288;53.446;-2.266;2024-03-08T07:20:10;101789.13;;;4.73;100.00
73101;BME280;61288;53.446;-2.266;2024-03-08T07:22:38;101787.41;;;4.77;100.00
73101;BME280;61288;53.446;-2.266;2024-03-08T07:25:07;101797.69;;;4.79;100.00
73101;BME280;61288;53.446;-2.266;2024-03-08T07:27:33;101786.59;;;4.84;100.00
73101;BME280;61288;53.446;-2.266;2024-03-08T07:29:59;101791.69;;;4.83;100.00
73101;BME280;61288;53.446;-2.266;2024-03-08T07:32:26;101790.00;;;4.85;100.00
73101;BME280;61288;53.446;-2.266;2024-03-08T07:34:53;101789.16;;;4.87;100.00
73101;BME280;61288;53.446;-2.266;2024-03-08T07:37:20;101793.41;;;4.90;100.00
73101;BME280;61288;53.446;-2.266;2024-03-08T07:39:49;101790.84;;;4.95;100.00
73101;BME280;61288;53.446;-2.266;2024-03-08T07:42:15;101789.16;;;4.98;100.00
73101;BME280;61288;53.446;-2.266;2024-03-08T07:44:41;101788.28;;;5.04;100.00
73101;BME280;61288;53.446;-2.266;2024-03-08T07:47:08;101794.28;;;5.11;100.00
73101;BME280;61288;53.446;-2.266;2024-03-08T07:49:35;101790.03;;;5.14;100.00
73101;BME280;61288;53.446;-2.266;2024-03-08T07:52:04;101796.00;;;5.19;100.00
73101;BME280;61288;53.446;-2.266;2024-03-08T07:54:33;101791.72;;;5.20;100.00
73101;BME280;61288;53.446;-2.266;2024-03-08T07:57:00;101788.28;;;5.21;100.00
73101;BME280;61288;53.446;-2.266;2024-03-08T07:59:28;101785.72;;;5.19;100.00
73101;BME280;61288;53.446;-2.266;2024-03-08T08:01:54;101781.44;;;5.20;100.00
73101;BME280;61288;53.446;-2.266;2024-03-08T08:04:20;101770.31;;;5.19;100.00
73101;BME280;61288;53.446;-2.266;2024-03-08T08:06:50;101777.16;;;5.17;100.00
73101;BME280;61288;53.446;-2.266;2024-03-08T08:09:16;101782.31;;;5.14;100.00
73101;BME280;61288;53.446;-2.266;2024-03-08T08:11:47;101781.44;;;5.17;100.00
73101;BME280;61288;53.446;-2.266;2024-03-08T08:14:13;101781.44;;;5.17;100.00
73101;BME280;61288;53.446;-2.266;2024-03-08T08:16:40;101769.47;;;5.17;100.00
73101;BME280;61288;53.446;-2.266;2024-03-08T08:19:07;101776.28;;;5.20;100.00
73101;BME280;61288;53.446;-2.266;2024-03-08T08:21:34;101772.03;;;5.20;100.00
73101;BME280;61288;53.446;-2.266;2024-03-08T08:24:03;101772.88;;;5.19;100.00
73101;BME280;61288;53.446;-2.266;2024-03-08T08:26:28;101776.31;;;5.22;100.00
73101;BME280;61288;53.446;-2.266;2024-03-08T08:28:54;101773.72;;;5.26;100.00
73101;BME280;61288;53.446;-2.266;2024-03-08T08:31:19;101776.28;;;5.31;100.00
73101;BME280;61288;53.446;-2.266;2024-03-08T08:33:45;101773.72;;;5.32;100.00
73101;BME280;61288;53.446;-2.266;2024-03-08T08:36:10;101776.28;;;5.35;100.00
73101;BME280;61288;53.446;-2.266;2024-03-08T08:38:36;101780.53;;;5.41;100.00
73101;BME280;61288;53.446;-2.266;2024-03-08T08:41:01;101779.69;;;5.50;100.00
73101;BME280;61288;53.446;-2.266;2024-03-08T08:43:27;101777.09;;;5.56;100.00
73101;BME280;61288;53.446;-2.266;2024-03-08T08:45:53;101782.22;;;5.61;100.00
73101;BME280;61288;53.446;-2.266;2024-03-08T08:48:20;101779.66;;;5.66;100.00
73101;BME280;61288;53.446;-2.266;2024-03-08T08:50:46;101771.94;;;5.67;100.00
73101;BME280;61288;53.446;-2.266;2024-03-08T08:53:13;101780.50;;;5.66;100.00
73101;BME280;61288;53.446;-2.266;2024-03-08T08:55:40;101788.22;;;5.69;100.00
73101;BME280;61288;53.446;-2.266;2024-03-08T08:58:05;101787.34;;;5.70;100.00
73101;BME280;61288;53.446;-2.266;2024-03-08T09:00:33;101783.91;;;5.74;100.00
73101;BME280;61288;53.446;-2.266;2024-03-08T09:03:00;101787.34;;;5.72;100.00
73101;BME280;61288;53.446;-2.266;2024-03-08T09:05:25;101784.78;;;5.72;100.00
73101;BME280;61288;53.446;-2.266;2024-03-08T09:07:51;101777.03;;;5.73;100.00
73101;BME280;61288;53.446;-2.266;2024-03-08T09:10:18;101783.09;;;5.68;100.00
73101;BME280;61288;53.446;-2.266;2024-03-08T09:12:44;101774.47;;;5.76;100.00
73101;BME280;61288;53.446;-2.266;2024-03-08T09:15:10;101776.19;;;5.76;100.00
73101;BME280;61288;53.446;-2.266;2024-03-08T09:17:39;101774.47;;;5.83;100.00
73101;BME280;61288;53.446;-2.266;2024-03-08T09:20:08;101771.03;;;5.87;100.00
73101;BME280;61288;53.446;-2.266;2024-03-08T09:22:35;101773.59;;;5.87;100.00
73101;BME280;61288;53.446;-2.266;2024-03-08T09:25:00;101781.28;;;5.91;100.00
73101;BME280;61288;53.446;-2.266;2024-03-08T09:27:27;101770.94;;;6.12;100.00
73101;BME280;61288;53.446;-2.266;2024-03-08T09:29:52;101781.16;;;6.27;100.00
73101;BME280;61288;53.446;-2.266;2024-03-08T09:32:18;101769.09;;;6.35;100.00
73101;BME280;61288;53.446;-2.266;2024-03-08T09:34:44;101767.34;;;6.47;100.00
73101;BME280;61288;53.446;-2.266;2024-03-08T09:37:10;101771.56;;;6.53;100.00
73101;BME280;61288;53.446;-2.266;2024-03-08T09:39:36;101778.94;;;7.05;100.00
73101;BME280;61288;53.446;-2.266;2024-03-08T09:42:03;101788.13;;;7.33;100.00
73101;BME280;61288;53.446;-2.266;2024-03-08T09:44:29;101800.03;;;7.48;100.00
73101;BME280;61288;53.446;-2.266;2024-03-08T09:46:55;101804.47;;;7.33;100.00
73101;BME280;61288;53.446;-2.266;2024-03-08T09:49:21;101802.91;;;7.12;100.00
73101;BME280;61288;53.446;-2.266;2024-03-08T09:51:46;101808.94;;;7.11;100.00
73101;BME280;61288;53.446;-2.266;2024-03-08T09:54:13;101798.47;;;7.28;100.00
73101;BME280;61288;53.446;-2.266;2024-03-08T09:56:39;101796.00;;;7.16;100.00
73101;BME280;61288;53.446;-2.266;2024-03-08T09:59:10;101799.53;;;7.08;100.00
73101;BME280;61288;53.446;-2.266;2024-03-08T10:01:47;101796.03;;;7.11;100.00
73101;BME280;61288;53.446;-2.266;2024-03-08T10:04:13;101802.19;;;6.99;100.00
73101;BME280;61288;53.446;-2.266;2024-03-08T10:06:39;101809.97;;;6.88;100.00
73101;BME280;61288;53.446;-2.266;2024-03-08T10:09:05;101808.38;;;6.70;100.00
73101;BME280;61288;53.446;-2.266;2024-03-08T10:11:33;101804.16;;;6.57;100.00
73101;BME280;61288;53.446;-2.266;2024-03-08T10:13:59;101795.63;;;6.50;100.00
73101;BME280;61288;53.446;-2.266;2024-03-08T10:16:27;101781.91;;;6.48;100.00
73101;BME280;61288;53.446;-2.266;2024-03-08T10:18:56;101771.59;;;6.49;100.00
73101;BME280;61288;53.446;-2.266;2024-03-08T10:21:21;101768.16;;;6.52;100.00
73101;BME280;61288;53.446;-2.266;2024-03-08T10:23:48;101764.69;;;6.55;100.00
73101;BME280;61288;53.446;-2.266;2024-03-08T10:26:17;101767.25;;;6.59;100.00
73101;BME280;61288;53.446;-2.266;2024-03-08T10:28:50;101772.44;;;6.53;100.00
73101;BME280;61288;53.446;-2.266;2024-03-08T10:31:17;101752.72;;;6.52;100.00
73101;BME280;61288;53.446;-2.266;2024-03-08T10:33:43;101767.31;;;6.44;100.00
73101;BME280;61288;53.446;-2.266;2024-03-08T10:36:10;101759.59;;;6.44;100.00
73101;BME280;61288;53.446;-2.266;2024-03-08T10:38:41;101751.94;;;6.39;100.00
73101;BME280;61288;53.446;-2.266;2024-03-08T10:41:08;101752.78;;;6.40;100.00
73101;BME280;61288;53.446;-2.266;2024-03-08T10:43:46;101745.94;;;6.37;100.00
73101;BME280;61288;53.446;-2.266;2024-03-08T10:46:25;101739.06;;;6.36;100.00
73101;BME280;61288;53.446;-2.266;2024-03-08T10:48:55;101742.50;;;6.36;100.00
73101;BME280;61288;53.446;-2.266;2024-03-08T10:51:29;101741.69;;;6.33;100.00
73101;BME280;61288;53.446;-2.266;2024-03-08T10:53:57;101742.50;;;6.33;100.00
73101;BME280;61288;53.446;-2.266;2024-03-08T10:56:24;101739.13;;;6.28;100.00
73101;BME280;61288;53.446;-2.266;2024-03-08T10:58:54;101740.03;;;6.19;100.00
73101;BME280;61288;53.446;-2.266;2024-03-08T11:01:21;101734.03;;;6.13;100.00
73101;BME280;61288;53.446;-2.266;2024-03-08T11:03:47;101723.75;;;6.10;100.00
73101;BME280;61288;53.446;-2.266;2024-03-08T11:06:22;101710.91;;;6.06;100.00
73101;BME280;61288;53.446;-2.266;2024-03-08T11:08:48;101708.38;;;6.02;100.00
73101;BME280;61288;53.446;-2.266;2024-03-08T11:11:25;101700.66;;;6.02;100.00
73101;BME280;61288;53.446;-2.266;2024-03-08T11:13:53;101691.19;;;6.07;100.00
73101;BME280;61288;53.446;-2.266;2024-03-08T11:16:38;101688.66;;;6.04;100.00
73101;BME280;61288;53.446;-2.266;2024-03-08T11:19:24;101685.22;;;6.03;100.00
73101;BME280;61288;53.446;-2.266;2024-03-08T11:22:03;101682.66;;;5.99;100.00
73101;BME280;61288;53.446;-2.266;2024-03-08T11:24:39;101683.50;;;5.95;100.00
73101;BME280;61288;53.446;-2.266;2024-03-08T11:27:10;101677.50;;;5.96;100.00
73101;BME280;61288;53.446;-2.266;2024-03-08T11:29:37;101662.94;;;5.96;100.00
73101;BME280;61288;53.446;-2.266;2024-03-08T11:32:11;101665.50;;;5.98;100.00
73101;BME280;61288;53.446;-2.266;2024-03-08T11:34:40;101656.06;;;6.00;100.00
73101;BME280;61288;53.446;-2.266;2024-03-08T11:37:11;101660.34;;;5.99;100.00
73101;BME280;61288;53.446;-2.266;2024-03-08T11:39:39;101656.91;;;5.99;100.00
73101;BME280;61288;53.446;-2.266;2024-03-08T11:42:05;101648.34;;;5.98;100.00
73101;BME280;61288;53.446;-2.266;2024-03-08T11:44:32;101646.63;;;5.97;100.00
73101;BME280;61288;53.446;-2.266;2024-03-08T11:46:57;101647.50;;;5.95;100.00
73101;BME280;61288;53.446;-2.266;2024-03-08T11:49:23;101645.78;;;5.95;100.00
73101;BME280;61288;53.446;-2.266;2024-03-08T11:51:52;101646.63;;;5.96;100.00
73101;BME280;61288;53.446;-2.266;2024-03-08T11:54:19;101640.63;;;5.95;100.00
73101;BME280;61288;53.446;-2.266;2024-03-08T11:56:45;101628.63;;;5.94;100.00
73101;BME280;61288;53.446;-2.266;2024-03-08T11:59:14;101636.34;;;5.99;100.00
73101;BME280;61288;53.446;-2.266;2024-03-08T12:01:40;101626.03;;;6.00;100.00
73101;BME280;61288;53.446;-2.266;2024-03-08T12:04:05;101638.06;;;5.93;100.00
73101;BME280;61288;53.446;-2.266;2024-03-08T12:06:39;101634.63;;;5.95;100.00
73101;BME280;61288;53.446;-2.266;2024-03-08T12:09:09;101625.19;;;5.98;100.00
73101;BME280;61288;53.446;-2.266;2024-03-08T12:11:35;101622.63;;;6.01;100.00
73101;BME280;61288;53.446;-2.266;2024-03-08T12:14:01;101613.16;;;6.03;100.00
73101;BME280;61288;53.446;-2.266;2024-03-08T12:16:27;101614.84;;;6.07;100.00
73101;BME280;61288;53.446;-2.266;2024-03-08T12:18:53;101623.41;;;6.10;100.00
73101;BME280;61288;53.446;-2.266;2024-03-08T12:21:19;101617.41;;;6.12;100.00
73101;BME280;61288;53.446;-2.266;2024-03-08T12:23:48;101622.50;;;6.20;100.00
73101;BME280;61288;53.446;-2.266;2024-03-08T12:26:28;101619.91;;;6.21;100.00
73101;BME280;61288;53.446;-2.266;2024-03-08T12:28:53;101621.59;;;6.24;100.00
73101;BME280;61288;53.446;-2.266;2024-03-08T12:31:19;101618.16;;;6.25;100.00
73101;BME280;61288;53.446;-2.266;2024-03-08T12:36:17;101611.22;;;6.33;100.00
73101;BME280;61288;53.446;-2.266;2024-03-08T12:38:48;101615.47;;;6.41;100.00
73101;BME280;61288;53.446;-2.266;2024-03-08T12:41:18;101605.94;;;6.52;100.00
73101;BME280;61288;53.446;-2.266;2024-03-08T12:43:47;101607.63;;;6.56;100.00